sensor_id;sensor_type;location;lat;lon;timestamp;temperature;humidity
7129;DHT22;3606;52.930;8.644;2023-05-03T00:01:46;1.00;99.90
7129;DHT22;3606;52.930;8.644;2023-05-03T00:04:12;1.10;99.90
7129;DHT22;3606;52.930;8.644;2023-05-03T00:06:42;1.10;99.90
7129;DHT22;3606;52.930;8.644;2023-05-03T00:09:08;1.20;99.90
7129;DHT22;3606;52.930;8.644;2023-05-03T00:11:35;1.30;99.90
7129;DHT22;3606;52.930;8.644;2023-05-03T00:14:01;1.30;99.90
7129;DHT22;3606;52.930;8.644;2023-05-03T00:16:26;1.20;99.90
7129;DHT22;3606;52.930;8.644;2023-05-03T00:18:52;1.10;99.90
7129;DHT22;3606;52.930;8.644;2023-05-03T00:21:17;1.10;99.90
7129;DHT22;3606;52.930;8.644;2023-05-03T00:23:43;1.20;99.90
7129;DHT22;3606;52.930;8.644;2023-05-03T00:26:08;1.20;99.90
7129;DHT22;3606;52.930;8.644;2023-05-03T00:28:34;1.20;99.90
7129;DHT22;3606;52.930;8.644;2023-05-03T00:31:07;1.10;99.90
7129;DHT22;3606;52.930;8.644;2023-05-03T00:33:34;1.00;99.90
7129;DHT22;3606;52.930;8.644;2023-05-03T00:36:09;0.90;99.90
7129;DHT22;3606;52.930;8.644;2023-05-03T00:38:35;0.90;99.90
7129;DHT22;3606;52.930;8.644;2023-05-03T00:41:01;0.80;99.90
7129;DHT22;3606;52.930;8.644;2023-05-03T00:43:28;0.80;99.90
7129;DHT22;3606;52.930;8.644;2023-05-03T00:45:54;0.70;99.90
7129;DHT22;3606;52.930;8.644;2023-05-03T00:48:19;0.60;99.90
7129;DHT22;3606;52.930;8.644;2023-05-03T00:50:46;0.60;99.90
7129;DHT22;3606;52.930;8.644;2023-05-03T00:53:13;0.60;99.90
7129;DHT22;3606;52.930;8.644;2023-05-03T00:55:39;0.60;99.90
7129;DHT22;3606;52.930;8.644;2023-05-03T00:58:05;0.50;99.90
7129;DHT22;3606;52.930;8.644;2023-05-03T01:00:31;0.50;99.90
7129;DHT22;3606;52.930;8.644;2023-05-03T01:02:57;0.50;99.90
7129;DHT22;3606;52.930;8.644;2023-05-03T01:05:22;0.50;99.90
7129;DHT22;3606;52.930;8.644;2023-05-03T01:10:47;0.40;99.90
7129;DHT22;3606;52.930;8.644;2023-05-03T01:16:05;0.40;99.90
7129;DHT22;3606;52.930;8.644;2023-05-03T01:18:41;0.40;99.90
7129;DHT22;3606;52.930;8.644;2023-05-03T01:21:09;0.40;99.90
7129;DHT22;3606;52.930;8.644;2023-05-03T01:23:58;0.30;99.90
7129;DHT22;3606;52.930;8.644;2023-05-03T01:26:26;0.30;99.90
7129;DHT22;3606;52.930;8.644;2023-05-03T01:28:52;0.20;99.90
7129;DHT22;3606;52.930;8.644;2023-05-03T01:31:33;0.20;99.90
7129;DHT22;3606;52.930;8.644;2023-05-03T01:34:30;0.10;99.90
7129;DHT22;3606;52.930;8.644;2023-05-03T01:36:58;0.10;99.90
7129;DHT22;3606;52.930;8.644;2023-05-03T01:39:34;0.10;99.90
7129;DHT22;3606;52.930;8.644;2023-05-03T01:42:03;0.10;99.90
7129;DHT22;3606;52.930;8.644;2023-05-03T01:44:29;0.10;99.90
7129;DHT22;3606;52.930;8.644;2023-05-03T01:46:56;0.00;99.90
7129;DHT22;3606;52.930;8.644;2023-05-03T01:49:22;0.00;99.90
7129;DHT22;3606;52.930;8.644;2023-05-03T01:51:47;0.00;99.90
7129;DHT22;3606;52.930;8.644;2023-05-03T01:54:13;0.00;99.90
7129;DHT22;3606;52.930;8.644;2023-05-03T01:56:39;0.10;99.90
7129;DHT22;3606;52.930;8.644;2023-05-03T01:59:04;0.10;99.90
7129;DHT22;3606;52.930;8.644;2023-05-03T02:01:30;0.10;99.90
7129;DHT22;3606;52.930;8.644;2023-05-03T02:03:55;0.10;99.90
7129;DHT22;3606;52.930;8.644;2023-05-03T02:06:23;0.20;99.90
7129;DHT22;3606;52.930;8.644;2023-05-03T02:08:49;0.20;99.90
7129;DHT22;3606;52.930;8.644;2023-05-03T02:11:15;0.30;99.90
7129;DHT22;3606;52.930;8.644;2023-05-03T02:13:40;0.40;99.90
7129;DHT22;3606;52.930;8.644;2023-05-03T02:16:06;0.60;99.90
7129;DHT22;3606;52.930;8.644;2023-05-03T02:18:31;0.70;99.90
7129;DHT22;3606;52.930;8.644;2023-05-03T02:20:58;0.80;99.90
7129;DHT22;3606;52.930;8.644;2023-05-03T02:23:23;1.00;99.90
7129;DHT22;3606;52.930;8.644;2023-05-03T02:25:49;1.10;99.90
7129;DHT22;3606;52.930;8.644;2023-05-03T02:28:15;1.30;99.90
7129;DHT22;3606;52.930;8.644;2023-05-03T02:30:41;1.40;99.90
7129;DHT22;3606;52.930;8.644;2023-05-03T02:33:07;1.50;99.90
7129;DHT22;3606;52.930;8.644;2023-05-03T02:35:33;1.60;99.90
7129;DHT22;3606;52.930;8.644;2023-05-03T02:37:58;1.70;99.90
7129;DHT22;3606;52.930;8.644;2023-05-03T02:40:24;1.80;99.90
7129;DHT22;3606;52.930;8.644;2023-05-03T02:42:50;1.90;99.90
7129;DHT22;3606;52.930;8.644;2023-05-03T02:45:15;1.90;99.90
7129;DHT22;3606;52.930;8.644;2023-05-03T02:47:41;2.00;99.90
7129;DHT22;3606;52.930;8.644;2023-05-03T02:50:07;2.10;99.90
7129;DHT22;3606;52.930;8.644;2023-05-03T02:52:33;2.10;99.90
7129;DHT22;3606;52.930;8.644;2023-05-03T02:54:58;2.10;99.90
7129;DHT22;3606;52.930;8.644;2023-05-03T02:57:24;2.20;99.90
7129;DHT22;3606;52.930;8.644;2023-05-03T02:59:50;2.30;99.90
7129;DHT22;3606;52.930;8.644;2023-05-03T03:02:15;2.30;99.90
7129;DHT22;3606;52.930;8.644;2023-05-03T03:04:41;2.30;99.90
7129;DHT22;3606;52.930;8.644;2023-05-03T03:07:06;2.40;99.90
7129;DHT22;3606;52.930;8.644;2023-05-03T03:09:32;2.50;99.90
7129;DHT22;3606;52.930;8.644;2023-05-03T03:11:59;2.50;99.90
7129;DHT22;3606;52.930;8.644;2023-05-03T03:14:26;2.60;99.90
7129;DHT22;3606;52.930;8.644;2023-05-03T03:16:52;2.70;99.90
7129;DHT22;3606;52.930;8.644;2023-05-03T03:19:18;2.70;99.90
7129;DHT22;3606;52.930;8.644;2023-05-03T03:21:44;2.70;99.90
7129;DHT22;3606;52.930;8.644;2023-05-03T03:24:09;2.70;99.90
7129;DHT22;3606;52.930;8.644;2023-05-03T03:26:35;2.70;99.90
7129;DHT22;3606;52.930;8.644;2023-05-03T03:29:00;2.70;99.90
7129;DHT22;3606;52.930;8.644;2023-05-03T03:31:26;2.80;99.90
7129;DHT22;3606;52.930;8.644;2023-05-03T03:33:51;2.80;99.90
7129;DHT22;3606;52.930;8.644;2023-05-03T03:36:17;2.70;99.90
7129;DHT22;3606;52.930;8.644;2023-05-03T03:38:42;2.80;99.90
7129;DHT22;3606;52.930;8.644;2023-05-03T03:41:08;2.80;99.90
7129;DHT22;3606;52.930;8.644;2023-05-03T03:43:34;2.70;99.90
7129;DHT22;3606;52.930;8.644;2023-05-03T03:45:59;2.80;99.90
7129;DHT22;3606;52.930;8.644;2023-05-03T03:48:25;2.80;99.90
7129;DHT22;3606;52.930;8.644;2023-05-03T03:50:51;2.80;99.90
7129;DHT22;3606;52.930;8.644;2023-05-03T03:53:16;2.90;99.90
7129;DHT22;3606;52.930;8.644;2023-05-03T03:55:42;2.90;99.90
7129;DHT22;3606;52.930;8.644;2023-05-03T03:58:07;2.90;99.90
7129;DHT22;3606;52.930;8.644;2023-05-03T04:00:33;2.90;99.90
7129;DHT22;3606;52.930;8.644;2023-05-03T04:03:00;2.90;99.90
7129;DHT22;3606;52.930;8.644;2023-05-03T04:05:26;3.00;99.90
7129;DHT22;3606;52.930;8.644;2023-05-03T04:07:51;3.00;99.90
7129;DHT22;3606;52.930;8.644;2023-05-03T04:10:17;3.10;99.90
7129;DHT22;3606;52.930;8.644;2023-05-03T04:12:42;3.10;99.90
7129;DHT22;3606;52.930;8.644;2023-05-03T04:15:09;3.20;99.90
7129;DHT22;3606;52.930;8.644;2023-05-03T04:17:35;3.20;99.90
7129;DHT22;3606;52.930;8.644;2023-05-03T04:20:01;3.20;99.90
7129;DHT22;3606;52.930;8.644;2023-05-03T04:22:36;3.20;99.90
7129;DHT22;3606;52.930;8.644;2023-05-03T04:25:04;3.20;99.90
7129;DHT22;3606;52.930;8.644;2023-05-03T04:27:30;3.30;99.90
7129;DHT22;3606;52.930;8.644;2023-05-03T04:29:57;3.30;99.90
7129;DHT22;3606;52.930;8.644;2023-05-03T04:32:24;3.30;99.90
7129;DHT22;3606;52.930;8.644;2023-05-03T04:34:50;3.30;99.90
7129;DHT22;3606;52.930;8.644;2023-05-03T04:37:17;3.30;99.90
7129;DHT22;3606;52.930;8.644;2023-05-03T04:39:43;3.40;99.90
7129;DHT22;3606;52.930;8.644;2023-05-03T04:42:10;3.30;99.90
7129;DHT22;3606;52.930;8.644;2023-05-03T04:44:37;3.40;99.90
7129;DHT22;3606;52.930;8.644;2023-05-03T04:47:03;3.40;99.90
7129;DHT22;3606;52.930;8.644;2023-05-03T04:49:29;3.50;99.90
7129;DHT22;3606;52.930;8.644;2023-05-03T04:51:54;3.50;99.90
7129;DHT22;3606;52.930;8.644;2023-05-03T04:54:20;3.40;99.90
7129;DHT22;3606;52.930;8.644;2023-05-03T04:56:45;3.30;99.90
7129;DHT22;3606;52.930;8.644;2023-05-03T04:59:11;3.30;99.90
7129;DHT22;3606;52.930;8.644;2023-05-03T05:01:37;3.40;99.90
7129;DHT22;3606;52.930;8.644;2023-05-03T05:04:02;3.40;99.90
7129;DHT22;3606;52.930;8.644;2023-05-03T05:06:28;3.60;99.90
7129;DHT22;3606;52.930;8.644;2023-05-03T05:08:53;3.70;99.90
7129;DHT22;3606;52.930;8.644;2023-05-03T05:11:19;3.80;99.90
7129;DHT22;3606;52.930;8.644;2023-05-03T05:13:46;4.00;99.90
7129;DHT22;3606;52.930;8.644;2023-05-03T05:16:12;4.00;99.90
7129;DHT22;3606;52.930;8.644;2023-05-03T05:18:38;4.20;99.90
7129;DHT22;3606;52.930;8.644;2023-05-03T05:21:03;4.40;99.90
7129;DHT22;3606;52.930;8.644;2023-05-03T05:23:29;4.60;99.90
7129;DHT22;3606;52.930;8.644;2023-05-03T05:25:55;4.80;99.90
7129;DHT22;3606;52.930;8.644;2023-05-03T05:28:25;5.00;99.90
7129;DHT22;3606;52.930;8.644;2023-05-03T05:30:51;5.20;99.90
7129;DHT22;3606;52.930;8.644;2023-05-03T05:33:16;5.30;99.90
7129;DHT22;3606;52.930;8.644;2023-05-03T05:35:44;5.50;99.90
7129;DHT22;3606;52.930;8.644;2023-05-03T05:38:09;5.70;99.90
7129;DHT22;3606;52.930;8.644;2023-05-03T05:40:36;5.90;99.90
7129;DHT22;3606;52.930;8.644;2023-05-03T05:43:02;6.10;99.90
7129;DHT22;3606;52.930;8.644;2023-05-03T05:45:27;6.30;99.90
7129;DHT22;3606;52.930;8.644;2023-05-03T05:47:53;6.40;99.90
7129;DHT22;3606;52.930;8.644;2023-05-03T05:50:19;6.60;99.90
7129;DHT22;3606;52.930;8.644;2023-05-03T05:52:44;6.80;99.90
7129;DHT22;3606;52.930;8.644;2023-05-03T05:55:10;7.00;99.90
7129;DHT22;3606;52.930;8.644;2023-05-03T05:57:38;7.40;99.90
7129;DHT22;3606;52.930;8.644;2023-05-03T06:00:05;7.60;99.90
7129;DHT22;3606;52.930;8.644;2023-05-03T06:02:42;7.90;99.90
7129;DHT22;3606;52.930;8.644;2023-05-03T06:05:09;8.10;99.90
7129;DHT22;3606;52.930;8.644;2023-05-03T06:07:35;8.40;99.90
7129;DHT22;3606;52.930;8.644;2023-05-03T06:10:01;8.50;99.90
7129;DHT22;3606;52.930;8.644;2023-05-03T06:12:28;8.60;99.90
7129;DHT22;3606;52.930;8.644;2023-05-03T06:14:54;8.70;99.90
7129;DHT22;3606;52.930;8.644;2023-05-03T06:17:20;8.90;99.90
7129;DHT22;3606;52.930;8.644;2023-05-03T06:19:47;9.10;99.90
7129;DHT22;3606;52.930;8.644;2023-05-03T06:22:14;9.30;62.00
7129;DHT22;3606;52.930;8.644;2023-05-03T06:24:39;9.50;18.50
7129;DHT22;3606;52.930;8.644;2023-05-03T06:27:05;9.70;1.00
7129;DHT22;3606;52.930;8.644;2023-05-03T06:29:31;9.80;1.00
7129;DHT22;3606;52.930;8.644;2023-05-03T06:31:56;9.90;1.00
7129;DHT22;3606;52.930;8.644;2023-05-03T06:34:22;10.10;1.00
7129;DHT22;3606;52.930;8.644;2023-05-03T06:36:48;10.10;99.90
7129;DHT22;3606;52.930;8.644;2023-05-03T06:39:14;10.20;99.90
7129;DHT22;3606;52.930;8.644;2023-05-03T06:41:40;10.40;99.90
7129;DHT22;3606;52.930;8.644;2023-05-03T06:44:06;10.60;1.00
7129;DHT22;3606;52.930;8.644;2023-05-03T06:46:31;10.80;1.00
7129;DHT22;3606;52.930;8.644;2023-05-03T06:48:57;11.10;1.00
7129;DHT22;3606;52.930;8.644;2023-05-03T06:51:23;11.40;1.00
7129;DHT22;3606;52.930;8.644;2023-05-03T06:53:53;11.60;99.90
7129;DHT22;3606;52.930;8.644;2023-05-03T06:56:20;11.80;99.90
7129;DHT22;3606;52.930;8.644;2023-05-03T06:58:46;11.90;1.00
7129;DHT22;3606;52.930;8.644;2023-05-03T07:01:12;11.60;99.90
7129;DHT22;3606;52.930;8.644;2023-05-03T07:03:38;11.70;99.90
7129;DHT22;3606;52.930;8.644;2023-05-03T07:06:04;11.80;8.10
7129;DHT22;3606;52.930;8.644;2023-05-03T07:08:29;12.10;1.00
7129;DHT22;3606;52.930;8.644;2023-05-03T07:10:56;12.30;1.00
7129;DHT22;3606;52.930;8.644;2023-05-03T07:13:21;12.50;1.00
7129;DHT22;3606;52.930;8.644;2023-05-03T07:15:47;12.80;94.80
7129;DHT22;3606;52.930;8.644;2023-05-03T07:18:12;13.00;1.00
7129;DHT22;3606;52.930;8.644;2023-05-03T07:20:38;13.10;1.00
7129;DHT22;3606;52.930;8.644;2023-05-03T07:23:04;13.10;1.00
7129;DHT22;3606;52.930;8.644;2023-05-03T07:25:31;13.30;99.90
7129;DHT22;3606;52.930;8.644;2023-05-03T07:27:57;13.50;99.90
7129;DHT22;3606;52.930;8.644;2023-05-03T07:30:22;13.30;1.00
7129;DHT22;3606;52.930;8.644;2023-05-03T07:32:49;13.20;1.00
7129;DHT22;3606;52.930;8.644;2023-05-03T07:35:15;13.20;99.90
7129;DHT22;3606;52.930;8.644;2023-05-03T07:37:41;13.10;1.00
7129;DHT22;3606;52.930;8.644;2023-05-03T07:40:08;13.10;1.00
7129;DHT22;3606;52.930;8.644;2023-05-03T07:42:34;13.20;1.00
7129;DHT22;3606;52.930;8.644;2023-05-03T07:45:00;13.60;64.40
7129;DHT22;3606;52.930;8.644;2023-05-03T07:47:26;14.20;99.90
7129;DHT22;3606;52.930;8.644;2023-05-03T07:49:52;14.70;1.00
7129;DHT22;3606;52.930;8.644;2023-05-03T07:52:18;14.70;99.90
7129;DHT22;3606;52.930;8.644;2023-05-03T07:54:44;15.10;99.90
7129;DHT22;3606;52.930;8.644;2023-05-03T07:57:14;14.80;1.00
7129;DHT22;3606;52.930;8.644;2023-05-03T07:59:41;15.70;99.90
7129;DHT22;3606;52.930;8.644;2023-05-03T08:02:07;16.20;99.90
7129;DHT22;3606;52.930;8.644;2023-05-03T08:04:33;16.10;99.90
7129;DHT22;3606;52.930;8.644;2023-05-03T08:07:00;15.50;99.90
7129;DHT22;3606;52.930;8.644;2023-05-03T08:09:26;14.80;99.90
7129;DHT22;3606;52.930;8.644;2023-05-03T08:11:53;14.90;99.90
7129;DHT22;3606;52.930;8.644;2023-05-03T08:14:19;14.90;99.90
7129;DHT22;3606;52.930;8.644;2023-05-03T08:16:44;14.90;99.90
7129;DHT22;3606;52.930;8.644;2023-05-03T08:19:10;14.50;99.90
7129;DHT22;3606;52.930;8.644;2023-05-03T08:21:36;14.50;99.90
7129;DHT22;3606;52.930;8.644;2023-05-03T08:24:02;14.30;99.90
7129;DHT22;3606;52.930;8.644;2023-05-03T08:26:30;14.40;99.90
7129;DHT22;3606;52.930;8.644;2023-05-03T08:28:56;14.20;99.90
7129;DHT22;3606;52.930;8.644;2023-05-03T08:31:22;14.00;99.90
7129;DHT22;3606;52.930;8.644;2023-05-03T08:33:47;14.00;99.90
7129;DHT22;3606;52.930;8.644;2023-05-03T08:36:13;14.90;99.90
7129;DHT22;3606;52.930;8.644;2023-05-03T08:38:39;15.20;99.90
7129;DHT22;3606;52.930;8.644;2023-05-03T08:41:30;15.00;99.90
7129;DHT22;3606;52.930;8.644;2023-05-03T08:43:57;14.60;99.90
7129;DHT22;3606;52.930;8.644;2023-05-03T08:46:24;14.40;99.90
7129;DHT22;3606;52.930;8.644;2023-05-03T08:48:53;14.80;99.90
7129;DHT22;3606;52.930;8.644;2023-05-03T08:51:20;14.50;99.90
7129;DHT22;3606;52.930;8.644;2023-05-03T08:53:46;14.60;99.90
7129;DHT22;3606;52.930;8.644;2023-05-03T08:56:22;15.50;99.90
7129;DHT22;3606;52.930;8.644;2023-05-03T08:58:49;17.50;99.90
7129;DHT22;3606;52.930;8.644;2023-05-03T09:01:15;19.10;99.90
7129;DHT22;3606;52.930;8.644;2023-05-03T09:03:48;20.10;99.90
7129;DHT22;3606;52.930;8.644;2023-05-03T09:06:23;21.50;99.90
7129;DHT22;3606;52.930;8.644;2023-05-03T09:08:51;22.20;99.90
7129;DHT22;3606;52.930;8.644;2023-05-03T09:11:27;21.70;99.90
7129;DHT22;3606;52.930;8.644;2023-05-03T09:13:54;21.30;99.90
7129;DHT22;3606;52.930;8.644;2023-05-03T09:16:31;20.50;99.90
7129;DHT22;3606;52.930;8.644;2023-05-03T09:18:58;20.30;99.90
7129;DHT22;3606;52.930;8.644;2023-05-03T09:21:24;19.30;99.90
7129;DHT22;3606;52.930;8.644;2023-05-03T09:23:50;18.10;99.90
7129;DHT22;3606;52.930;8.644;2023-05-03T09:26:33;16.80;99.90
7129;DHT22;3606;52.930;8.644;2023-05-03T09:29:00;15.90;99.90
7129;DHT22;3606;52.930;8.644;2023-05-03T09:31:27;15.30;99.90
7129;DHT22;3606;52.930;8.644;2023-05-03T09:33:54;14.80;99.90
7129;DHT22;3606;52.930;8.644;2023-05-03T09:36:20;14.60;99.90
7129;DHT22;3606;52.930;8.644;2023-05-03T09:38:46;14.30;99.90
7129;DHT22;3606;52.930;8.644;2023-05-03T09:41:11;14.10;99.90
7129;DHT22;3606;52.930;8.644;2023-05-03T09:43:51;14.20;99.90
7129;DHT22;3606;52.930;8.644;2023-05-03T09:46:17;14.30;99.90
7129;DHT22;3606;52.930;8.644;2023-05-03T09:48:43;14.20;99.90
7129;DHT22;3606;52.930;8.644;2023-05-03T09:51:10;14.50;99.90
7129;DHT22;3606;52.930;8.644;2023-05-03T09:53:37;15.20;99.90
7129;DHT22;3606;52.930;8.644;2023-05-03T09:56:05;15.70;99.90
7129;DHT22;3606;52.930;8.644;2023-05-03T09:58:34;16.10;99.90
7129;DHT22;3606;52.930;8.644;2023-05-03T10:01:00;15.60;99.90
7129;DHT22;3606;52.930;8.644;2023-05-03T10:03:47;14.60;1.00
7129;DHT22;3606;52.930;8.644;2023-05-03T10:06:34;13.90;24.90
7129;DHT22;3606;52.930;8.644;2023-05-03T10:11:50;13.30;1.00
7129;DHT22;3606;52.930;8.644;2023-05-03T10:14:16;13.00;1.00
7129;DHT22;3606;52.930;8.644;2023-05-03T10:16:47;13.20;1.00
7129;DHT22;3606;52.930;8.644;2023-05-03T10:19:18;15.80;1.00
7129;DHT22;3606;52.930;8.644;2023-05-03T10:21:58;18.50;99.90
7129;DHT22;3606;52.930;8.644;2023-05-03T10:24:26;20.70;99.90
7129;DHT22;3606;52.930;8.644;2023-05-03T10:26:54;22.30;99.90
7129;DHT22;3606;52.930;8.644;2023-05-03T10:31:59;24.20;99.90
7129;DHT22;3606;52.930;8.644;2023-05-03T10:34:30;22.80;99.90
7129;DHT22;3606;52.930;8.644;2023-05-03T10:37:01;22.70;99.90
7129;DHT22;3606;52.930;8.644;2023-05-03T10:39:27;22.40;99.90
7129;DHT22;3606;52.930;8.644;2023-05-03T10:41:58;22.50;99.90
7129;DHT22;3606;52.930;8.644;2023-05-03T10:44:50;23.10;99.90
7129;DHT22;3606;52.930;8.644;2023-05-03T10:47:18;23.10;99.90
7129;DHT22;3606;52.930;8.644;2023-05-03T10:49:45;21.90;99.90
7129;DHT22;3606;52.930;8.644;2023-05-03T10:55:13;21.50;99.90
7129;DHT22;3606;52.930;8.644;2023-05-03T10:57:42;21.80;99.90
7129;DHT22;3606;52.930;8.644;2023-05-03T11:00:15;22.20;99.90
7129;DHT22;3606;52.930;8.644;2023-05-03T11:05:37;21.80;99.90
7129;DHT22;3606;52.930;8.644;2023-05-03T11:10:38;20.90;99.90
7129;DHT22;3606;52.930;8.644;2023-05-03T11:13:04;21.20;99.90
7129;DHT22;3606;52.930;8.644;2023-05-03T11:15:30;22.00;99.90
7129;DHT22;3606;52.930;8.644;2023-05-03T11:17:55;22.30;99.90
7129;DHT22;3606;52.930;8.644;2023-05-03T11:20:21;21.30;99.90
7129;DHT22;3606;52.930;8.644;2023-05-03T11:22:47;19.50;99.90
7129;DHT22;3606;52.930;8.644;2023-05-03T11:25:13;19.40;99.90
7129;DHT22;3606;52.930;8.644;2023-05-03T11:27:42;20.00;99.90
7129;DHT22;3606;52.930;8.644;2023-05-03T11:30:09;20.90;99.90
7129;DHT22;3606;52.930;8.644;2023-05-03T11:32:35;20.90;99.90
7129;DHT22;3606;52.930;8.644;2023-05-03T11:35:05;20.80;99.90
7129;DHT22;3606;52.930;8.644;2023-05-03T11:37:32;21.20;99.90
7129;DHT22;3606;52.930;8.644;2023-05-03T11:39:58;21.20;99.90
7129;DHT22;3606;52.930;8.644;2023-05-03T11:42:24;21.20;99.90
7129;DHT22;3606;52.930;8.644;2023-05-03T11:44:54;20.80;99.90
7129;DHT22;3606;52.930;8.644;2023-05-03T11:47:21;20.60;99.90
7129;DHT22;3606;52.930;8.644;2023-05-03T11:49:51;20.10;99.90
7129;DHT22;3606;52.930;8.644;2023-05-03T11:52:22;19.60;99.90
7129;DHT22;3606;52.930;8.644;2023-05-03T11:54:48;19.50;99.90
7129;DHT22;3606;52.930;8.644;2023-05-03T11:57:14;19.50;99.90
7129;DHT22;3606;52.930;8.644;2023-05-03T11:59:41;19.50;99.90
7129;DHT22;3606;52.930;8.644;2023-05-03T12:02:11;18.90;99.90
7129;DHT22;3606;52.930;8.644;2023-05-03T12:04:37;18.80;99.90
7129;DHT22;3606;52.930;8.644;2023-05-03T12:07:06;19.10;99.90
7129;DHT22;3606;52.930;8.644;2023-05-03T12:09:33;18.80;99.90
7129;DHT22;3606;52.930;8.644;2023-05-03T12:11:59;18.90;99.90
7129;DHT22;3606;52.930;8.644;2023-05-03T12:14:25;18.30;99.90
7129;DHT22;3606;52.930;8.644;2023-05-03T12:16:51;18.50;99.90
7129;DHT22;3606;52.930;8.644;2023-05-03T12:19:29;18.20;99.90
7129;DHT22;3606;52.930;8.644;2023-05-03T12:21:55;18.50;99.90
7129;DHT22;3606;52.930;8.644;2023-05-03T12:24:21;17.60;99.90
7129;DHT22;3606;52.930;8.644;2023-05-03T12:26:48;16.70;99.90
7129;DHT22;3606;52.930;8.644;2023-05-03T12:29:14;16.80;99.90
7129;DHT22;3606;52.930;8.644;2023-05-03T12:31:41;17.50;99.90
7129;DHT22;3606;52.930;8.644;2023-05-03T12:34:06;18.40;99.90
7129;DHT22;3606;52.930;8.644;2023-05-03T12:36:33;19.20;99.90
7129;DHT22;3606;52.930;8.644;2023-05-03T12:38:59;19.70;99.90
7129;DHT22;3606;52.930;8.644;2023-05-03T12:41:25;20.20;99.90
7129;DHT22;3606;52.930;8.644;2023-05-03T12:43:54;20.70;99.90
7129;DHT22;3606;52.930;8.644;2023-05-03T12:46:21;21.10;99.90
7129;DHT22;3606;52.930;8.644;2023-05-03T12:48:48;21.10;99.90
7129;DHT22;3606;52.930;8.644;2023-05-03T12:51:14;20.70;99.90
7129;DHT22;3606;52.930;8.644;2023-05-03T12:53:39;20.50;99.90
7129;DHT22;3606;52.930;8.644;2023-05-03T12:56:05;21.50;99.90
7129;DHT22;3606;52.930;8.644;2023-05-03T12:58:31;22.20;99.90
7129;DHT22;3606;52.930;8.644;2023-05-03T13:00:57;21.80;99.90
7129;DHT22;3606;52.930;8.644;2023-05-03T13:03:22;21.60;99.90
7129;DHT22;3606;52.930;8.644;2023-05-03T13:05:48;22.20;99.90
7129;DHT22;3606;52.930;8.644;2023-05-03T13:08:14;22.50;99.90
7129;DHT22;3606;52.930;8.644;2023-05-03T13:10:41;22.60;99.90
7129;DHT22;3606;52.930;8.644;2023-05-03T13:13:08;22.50;99.90
7129;DHT22;3606;52.930;8.644;2023-05-03T13:15:35;22.50;99.90
7129;DHT22;3606;52.930;8.644;2023-05-03T13:18:01;23.30;99.90
7129;DHT22;3606;52.930;8.644;2023-05-03T13:20:32;24.30;99.90
7129;DHT22;3606;52.930;8.644;2023-05-03T13:22:58;24.20;99.90
7129;DHT22;3606;52.930;8.644;2023-05-03T13:25:26;25.40;99.90
7129;DHT22;3606;52.930;8.644;2023-05-03T13:27:52;25.30;99.90
7129;DHT22;3606;52.930;8.644;2023-05-03T13:30:20;23.70;99.90
7129;DHT22;3606;52.930;8.644;2023-05-03T13:32:48;22.80;99.90
7129;DHT22;3606;52.930;8.644;2023-05-03T13:35:15;23.50;99.90
7129;DHT22;3606;52.930;8.644;2023-05-03T13:37:40;24.00;99.90
7129;DHT22;3606;52.930;8.644;2023-05-03T13:40:06;23.90;99.90
7129;DHT22;3606;52.930;8.644;2023-05-03T13:42:32;24.60;99.90
7129;DHT22;3606;52.930;8.644;2023-05-03T13:44:57;25.50;99.90
7129;DHT22;3606;52.930;8.644;2023-05-03T13:47:23;24.60;99.90
7129;DHT22;3606;52.930;8.644;2023-05-03T13:49:53;24.50;99.90
7129;DHT22;3606;52.930;8.644;2023-05-03T13:52:19;24.20;99.90
7129;DHT22;3606;52.930;8.644;2023-05-03T13:54:44;24.00;99.90
7129;DHT22;3606;52.930;8.644;2023-05-03T13:57:10;23.70;99.90
7129;DHT22;3606;52.930;8.644;2023-05-03T13:59:36;23.30;99.90
7129;DHT22;3606;52.930;8.644;2023-05-03T14:02:01;22.80;99.90
7129;DHT22;3606;52.930;8.644;2023-05-03T14:04:27;22.10;99.90
7129;DHT22;3606;52.930;8.644;2023-05-03T14:06:52;21.30;99.90
7129;DHT22;3606;52.930;8.644;2023-05-03T14:09:18;20.90;99.90
7129;DHT22;3606;52.930;8.644;2023-05-03T14:11:44;21.50;99.90
7129;DHT22;3606;52.930;8.644;2023-05-03T14:14:10;22.50;99.90
7129;DHT22;3606;52.930;8.644;2023-05-03T14:16:35;22.20;99.90
7129;DHT22;3606;52.930;8.644;2023-05-03T14:19:01;22.10;99.90
7129;DHT22;3606;52.930;8.644;2023-05-03T14:21:27;22.80;99.90
7129;DHT22;3606;52.930;8.644;2023-05-03T14:23:53;22.90;99.90
7129;DHT22;3606;52.930;8.644;2023-05-03T14:26:19;23.10;99.90
7129;DHT22;3606;52.930;8.644;2023-05-03T14:28:44;23.40;99.90
7129;DHT22;3606;52.930;8.644;2023-05-03T14:31:11;23.60;99.90
7129;DHT22;3606;52.930;8.644;2023-05-03T14:33:37;22.90;99.90
7129;DHT22;3606;52.930;8.644;2023-05-03T14:36:05;23.00;99.90
7129;DHT22;3606;52.930;8.644;2023-05-03T14:38:33;22.20;99.90
7129;DHT22;3606;52.930;8.644;2023-05-03T14:40:58;22.50;99.90
7129;DHT22;3606;52.930;8.644;2023-05-03T14:43:24;22.50;99.90
7129;DHT22;3606;52.930;8.644;2023-05-03T14:45:49;21.90;99.90
7129;DHT22;3606;52.930;8.644;2023-05-03T14:48:15;21.90;99.90
7129;DHT22;3606;52.930;8.644;2023-05-03T14:50:46;21.70;99.90
7129;DHT22;3606;52.930;8.644;2023-05-03T14:53:12;22.10;99.90
7129;DHT22;3606;52.930;8.644;2023-05-03T14:55:38;21.80;99.90
7129;DHT22;3606;52.930;8.644;2023-05-03T14:58:03;21.70;99.90
7129;DHT22;3606;52.930;8.644;2023-05-03T15:00:29;21.20;99.90
7129;DHT22;3606;52.930;8.644;2023-05-03T15:02:54;21.20;99.90
7129;DHT22;3606;52.930;8.644;2023-05-03T15:05:20;20.70;99.90
7129;DHT22;3606;52.930;8.644;2023-05-03T15:07:46;20.10;99.90
7129;DHT22;3606;52.930;8.644;2023-05-03T15:10:11;20.40;99.90
7129;DHT22;3606;52.930;8.644;2023-05-03T15:12:37;20.20;99.90
7129;DHT22;3606;52.930;8.644;2023-05-03T15:15:04;20.70;99.90
7129;DHT22;3606;52.930;8.644;2023-05-03T15:17:29;21.10;99.90
7129;DHT22;3606;52.930;8.644;2023-05-03T15:19:56;21.30;99.90
7129;DHT22;3606;52.930;8.644;2023-05-03T15:22:21;21.40;99.90
7129;DHT22;3606;52.930;8.644;2023-05-03T15:24:47;21.10;99.90
7129;DHT22;3606;52.930;8.644;2023-05-03T15:27:12;20.80;99.90
7129;DHT22;3606;52.930;8.644;2023-05-03T15:29:39;20.50;99.90
7129;DHT22;3606;52.930;8.644;2023-05-03T15:32:04;19.30;99.90
7129;DHT22;3606;52.930;8.644;2023-05-03T15:34:30;18.30;99.90
7129;DHT22;3606;52.930;8.644;2023-05-03T15:36:57;17.60;99.90
7129;DHT22;3606;52.930;8.644;2023-05-03T15:39:23;16.80;99.90
7129;DHT22;3606;52.930;8.644;2023-05-03T15:41:49;16.20;99.90
7129;DHT22;3606;52.930;8.644;2023-05-03T15:44:14;15.90;99.90
7129;DHT22;3606;52.930;8.644;2023-05-03T15:46:40;15.50;99.90
7129;DHT22;3606;52.930;8.644;2023-05-03T15:49:07;15.10;99.90
7129;DHT22;3606;52.930;8.644;2023-05-03T15:51:32;14.90;99.90
7129;DHT22;3606;52.930;8.644;2023-05-03T15:53:58;14.80;99.90
7129;DHT22;3606;52.930;8.644;2023-05-03T15:56:24;14.70;99.90
7129;DHT22;3606;52.930;8.644;2023-05-03T15:58:51;14.60;99.90
7129;DHT22;3606;52.930;8.644;2023-05-03T16:01:17;14.60;99.90
7129;DHT22;3606;52.930;8.644;2023-05-03T16:03:43;14.60;99.90
7129;DHT22;3606;52.930;8.644;2023-05-03T16:06:09;14.50;99.90
7129;DHT22;3606;52.930;8.644;2023-05-03T16:08:34;14.60;99.90
7129;DHT22;3606;52.930;8.644;2023-05-03T16:11:01;14.60;99.90
7129;DHT22;3606;52.930;8.644;2023-05-03T16:13:27;14.50;99.90
7129;DHT22;3606;52.930;8.644;2023-05-03T16:15:55;14.40;99.90
7129;DHT22;3606;52.930;8.644;2023-05-03T16:18:22;14.40;99.90
7129;DHT22;3606;52.930;8.644;2023-05-03T16:20:51;14.30;99.90
7129;DHT22;3606;52.930;8.644;2023-05-03T16:23:17;14.20;99.90
7129;DHT22;3606;52.930;8.644;2023-05-03T16:25:42;14.20;99.90
7129;DHT22;3606;52.930;8.644;2023-05-03T16:28:08;14.10;1.00